Time;durP1;ratioP1;P1;durP2;ratioP2;P2;SDS_P1;SDS_P2;PMS_P1;PMS_P2;Temp;Humidity;BMP_temperature;BMP_pressure;BME280_temperature;BME280_humidity;BME280_pressure;Samples;Min_cycle;Max_cycle;Signal;HPM_P1;HPM_P2
2022/12/31 00:01:32;;;;;;;1.15;0.40;;;11.90;99.90;;;;;;5067979;28;20032;-68
2022/12/31 00:03:58;;;;;;;1.05;0.40;;;11.90;99.90;;;;;;5068983;28;20560;-66
2022/12/31 00:06:30;;;;;;;1.25;0.55;;;11.90;99.90;;;;;;5068172;28;20112;-65
2022/12/31 00:08:58;;;;;;;2.05;0.70;;;11.90;99.90;;;;;;5059378;28;20051;-65
2022/12/31 00:11:25;;;;;;;1.55;0.63;;;11.90;99.90;;;;;;5065216;28;20025;-65
2022/12/31 00:13:51;;;;;;;2.85;0.70;;;11.80;99.90;;;;;;5068900;28;20953;-64
2022/12/31 00:16:25;;;;;;;0.75;0.40;;;11.80;99.90;;;;;;5067734;28;20035;-64
2022/12/31 00:18:54;;;;;;;3.15;0.70;;;11.80;99.90;;;;;;5066951;28;20060;-64
2022/12/31 00:21:20;;;;;;;1.27;0.65;;;11.80;99.90;;;;;;5066557;28;20111;-68
2022/12/31 00:23:46;;;;;;;0.77;0.55;;;11.80;99.90;;;;;;5054126;28;20036;-65
2022/12/31 00:26:20;;;;;;;0.90;0.57;;;11.80;99.90;;;;;;5049387;28;20932;-65
2022/12/31 00:28:47;;;;;;;1.67;0.50;;;11.80;99.90;;;;;;5060725;28;20067;-65
2022/12/31 00:31:22;;;;;;;0.82;0.38;;;11.80;99.90;;;;;;5051894;28;20115;-65
2022/12/31 00:33:48;;;;;;;1.98;0.70;;;11.70;99.90;;;;;;5048876;28;20056;-65
2022/12/31 00:36:19;;;;;;;1.30;0.47;;;11.70;99.90;;;;;;5061993;28;20024;-64
2022/12/31 00:38:47;;;;;;;1.35;0.70;;;11.70;99.90;;;;;;5062746;28;20497;-64
2022/12/31 00:41:15;;;;;;;2.22;0.60;;;11.80;99.90;;;;;;5059327;28;20040;-65
2022/12/31 00:43:41;;;;;;;1.27;0.70;;;11.80;99.90;;;;;;5049077;28;20071;-65
2022/12/31 00:46:07;;;;;;;3.83;0.80;;;11.80;99.90;;;;;;5060279;28;20041;-63
2022/12/31 00:48:34;;;;;;;2.88;0.65;;;11.80;99.90;;;;;;5050305;28;20082;-67
2022/12/31 00:51:01;;;;;;;1.45;0.60;;;11.80;99.90;;;;;;5050865;28;20028;-65
2022/12/31 00:53:27;;;;;;;1.27;0.50;;;11.80;99.90;;;;;;5066999;28;20025;-65
2022/12/31 00:56:01;;;;;;;1.67;0.38;;;11.80;99.90;;;;;;5048711;28;20040;-66
2022/12/31 00:58:27;;;;;;;2.47;0.60;;;11.90;99.90;;;;;;5066768;28;20075;-66
2022/12/31 01:00:53;;;;;;;2.17;0.50;;;11.90;99.90;;;;;;5065352;28;20065;-65
2022/12/31 01:03:19;;;;;;;2.67;0.50;;;11.90;99.90;;;;;;5066929;28;20040;-64
2022/12/31 01:05:44;;;;;;;1.52;0.50;;;12.00;99.90;;;;;;5066972;28;20050;-66
2022/12/31 01:08:10;;;;;;;0.68;0.47;;;12.00;99.90;;;;;;5064529;28;21896;-65
2022/12/31 01:13:20;;;;;;;1.90;0.40;;;12.10;99.90;;;;;;5052060;28;20511;-66
2022/12/31 01:15:46;;;;;;;0.73;0.28;;;12.10;99.90;;;;;;5065668;28;20025;-63
2022/12/31 01:18:11;;;;;;;2.92;0.40;;;12.20;99.90;;;;;;5065081;28;20091;-65
2022/12/31 01:20:39;;;;;;;2.15;0.45;;;12.30;99.90;;;;;;5063899;28;20064;-66
2022/12/31 01:23:06;;;;;;;0.70;0.20;;;12.40;99.90;;;;;;5054000;28;20075;-65
2022/12/31 01:25:35;;;;;;;1.35;0.38;;;12.40;99.90;;;;;;5067821;28;20482;-68
2022/12/31 01:28:01;;;;;;;0.50;0.30;;;12.50;99.90;;;;;;5069425;28;20048;-65
2022/12/31 01:30:26;;;;;;;0.77;0.30;;;12.50;99.90;;;;;;5068747;28;20035;-65
2022/12/31 01:32:52;;;;;;;0.57;0.20;;;12.50;99.90;;;;;;5065700;28;20039;-64
2022/12/31 01:35:18;;;;;;;1.08;0.20;;;12.50;99.90;;;;;;5068903;28;20025;-66
2022/12/31 01:37:43;;;;;;;0.60;0.20;;;12.50;99.90;;;;;;5072560;28;20499;-65
2022/12/31 01:40:09;;;;;;;0.25;0.20;;;12.50;99.90;;;;;;5057268;28;20115;-65
2022/12/31 01:42:35;;;;;;;0.40;0.10;;;12.60;99.90;;;;;;5058220;28;20074;-65
2022/12/31 01:45:00;;;;;;;1.10;0.30;;;12.70;99.90;;;;;;5066598;28;20025;-65
2022/12/31 01:47:36;;;;;;;0.90;0.25;;;12.70;99.90;;;;;;5065524;28;20056;-64
2022/12/31 01:50:20;;;;;;;0.68;0.30;;;12.80;99.90;;;;;;5064161;28;20539;-65
2022/12/31 01:52:49;;;;;;;0.75;0.30;;;12.90;99.90;;;;;;5070414;28;20051;-64
2022/12/31 01:55:27;;;;;;;0.50;0.22;;;13.00;99.90;;;;;;5065730;28;20032;-65
2022/12/31 01:57:58;;;;;;;1.40;0.40;;;12.90;99.90;;;;;;5067576;28;20127;-66
2022/12/31 02:00:23;;;;;;;0.63;0.40;;;13.00;99.90;;;;;;5063742;28;20523;-64
2022/12/31 02:02:49;;;;;;;2.08;0.43;;;13.00;99.90;;;;;;5070554;28;20032;-67
2022/12/31 02:05:26;;;;;;;0.93;0.50;;;12.90;99.90;;;;;;5064973;28;20128;-64
2022/12/31 02:07:53;;;;;;;2.90;0.40;;;13.10;99.90;;;;;;5049943;28;20040;-66
2022/12/31 02:10:19;;;;;;;2.67;0.50;;;13.20;99.90;;;;;;5059364;28;20055;-65
2022/12/31 02:12:46;;;;;;;0.88;0.40;;;13.20;99.90;;;;;;5051908;28;20419;-65
2022/12/31 02:15:11;;;;;;;0.80;0.50;;;13.20;99.90;;;;;;5062559;28;20032;-63
2022/12/31 02:17:47;;;;;;;0.85;0.30;;;13.30;99.90;;;;;;5072034;28;20040;-67
2022/12/31 02:20:33;;;;;;;1.35;0.30;;;13.30;99.90;;;;;;5063014;28;20124;-64
2022/12/31 02:23:53;;;;;;;1.38;0.30;;;13.30;99.90;;;;;;5055997;28;20044;-63
2022/12/31 02:26:44;;;;;;;0.73;0.30;;;13.50;99.90;;;;;;4970527;28;20050;-64
2022/12/31 02:29:15;;;;;;;2.15;0.30;;;13.50;99.90;;;;;;4982825;28;20046;-65
2022/12/31 02:31:46;;;;;;;2.78;0.40;;;13.50;99.90;;;;;;4984308;28;20108;-65
2022/12/31 02:34:17;;;;;;;1.27;0.40;;;13.40;99.90;;;;;;4986814;28;20023;-65
2022/12/31 02:36:45;;;;;;;2.50;0.40;;;13.30;99.90;;;;;;4968784;28;20050;-66
2022/12/31 02:39:12;;;;;;;1.60;0.47;;;13.20;99.90;;;;;;4970148;28;20546;-63
2022/12/31 02:41:50;;;;;;;0.55;0.35;;;13.20;99.90;;;;;;4970791;28;20039;-63
2022/12/31 02:44:24;;;;;;;0.95;0.30;;;13.10;99.90;;;;;;4984695;28;20038;-65
2022/12/31 02:46:52;;;;;;;2.38;0.50;;;13.10;99.90;;;;;;4968662;28;20077;-65
2022/12/31 02:49:49;;;;;;;0.50;0.25;;;13.10;99.90;;;;;;4971148;28;20134;-64
2022/12/31 02:52:33;;;;;;;1.58;0.57;;;13.00;99.90;;;;;;4969425;28;20035;-64
2022/12/31 02:55:32;;;;;;;2.40;0.45;;;13.00;99.90;;;;;;4981611;28;20037;-64
2022/12/31 02:58:15;;;;;;;0.73;0.30;;;13.10;99.90;;;;;;5065081;28;20090;-63
2022/12/31 03:03:37;;;;;;;1.23;0.50;;;13.10;99.90;;;;;;5050756;28;20031;-64
2022/12/31 03:06:03;;;;;;;1.30;0.50;;;13.10;99.90;;;;;;5068596;28;20062;-66
2022/12/31 03:08:29;;;;;;;5.15;0.35;;;13.20;99.90;;;;;;5057012;28;20072;-64
2022/12/31 03:10:55;;;;;;;2.20;0.47;;;13.30;99.90;;;;;;5070453;28;20060;-63
2022/12/31 03:13:22;;;;;;;1.00;0.50;;;13.40;99.90;;;;;;5058625;28;20058;-64
2022/12/31 03:15:48;;;;;;;1.08;0.40;;;13.30;99.90;;;;;;5069498;28;20081;-64
2022/12/31 03:22:26;;;;;;;1.17;0.55;;;13.30;99.90;;;;;;5055864;28;20112;-64
2022/12/31 03:26:42;;;;;;;3.25;0.50;;;13.30;99.90;;;;;;5052547;28;20459;-65
2022/12/31 03:29:07;;;;;;;2.63;0.50;;;13.40;99.90;;;;;;5052158;28;20041;-65
2022/12/31 03:31:33;;;;;;;0.65;0.30;;;13.30;99.90;;;;;;5068457;28;20091;-65
2022/12/31 03:33:58;;;;;;;5.15;0.40;;;13.40;99.90;;;;;;5064251;28;20472;-64
2022/12/31 03:36:24;;;;;;;0.88;0.40;;;13.30;99.90;;;;;;5070801;28;20028;-63
2022/12/31 03:38:50;;;;;;;1.23;0.30;;;13.30;99.90;;;;;;5068201;28;20033;-66
2022/12/31 03:41:15;;;;;;;1.10;0.57;;;13.40;99.90;;;;;;5068533;28;20028;-63
2022/12/31 03:43:41;;;;;;;1.83;0.50;;;13.40;99.90;;;;;;5083660;28;20080;-63
2022/12/31 03:46:06;;;;;;;1.50;0.50;;;13.40;99.90;;;;;;5065118;28;20021;-65
2022/12/31 03:48:32;;;;;;;2.67;0.55;;;13.40;99.90;;;;;;5051927;28;20440;-65
2022/12/31 03:50:58;;;;;;;6.63;0.50;;;13.50;99.90;;;;;;5081842;28;20037;-64
2022/12/31 03:53:23;;;;;;;0.77;0.40;;;13.50;99.90;;;;;;5088573;28;20031;-65
2022/12/31 03:55:53;;;;;;;2.58;0.65;;;13.60;99.90;;;;;;5057235;28;20033;-65
2022/12/31 03:58:18;;;;;;;0.50;0.30;;;13.60;99.90;;;;;;5070336;28;20032;-65
2022/12/31 04:00:44;;;;;;;1.50;0.52;;;13.50;99.90;;;;;;5064238;28;20031;-67
2022/12/31 04:03:10;;;;;;;1.48;0.60;;;13.50;99.90;;;;;;5069953;28;20034;-66
2022/12/31 04:05:35;;;;;;;0.80;0.30;;;13.60;99.90;;;;;;5059672;28;20453;-63
2022/12/31 04:08:01;;;;;;;1.08;0.43;;;13.70;99.90;;;;;;5062217;28;20039;-65
2022/12/31 04:10:27;;;;;;;0.60;0.32;;;13.90;99.90;;;;;;5066149;28;20098;-64
2022/12/31 04:12:53;;;;;;;1.40;0.50;;;13.90;99.90;;;;;;5062989;28;20032;-65
2022/12/31 04:15:20;;;;;;;1.38;0.60;;;13.80;99.90;;;;;;5058663;28;20081;-63
2022/12/31 04:17:46;;;;;;;2.95;0.50;;;13.90;99.90;;;;;;5068820;28;20123;-65
2022/12/31 04:20:13;;;;;;;1.05;0.38;;;13.90;99.90;;;;;;5068391;28;20029;-64
2022/12/31 04:22:38;;;;;;;0.80;0.40;;;13.90;99.90;;;;;;5068777;28;20028;-65
2022/12/31 04:25:10;;;;;;;0.90;0.22;;;13.90;99.90;;;;;;5068238;28;20131;-65
2022/12/31 04:27:39;;;;;;;1.77;0.30;;;13.90;99.90;;;;;;5068619;28;20404;-64
2022/12/31 04:30:06;;;;;;;1.07;0.40;;;14.00;99.90;;;;;;5069989;28;20528;-63
2022/12/31 04:32:32;;;;;;;1.25;0.40;;;14.00;99.90;;;;;;5054641;28;20469;-63
2022/12/31 04:34:57;;;;;;;0.63;0.35;;;14.10;99.90;;;;;;5068761;28;20021;-63
2022/12/31 04:37:23;;;;;;;1.73;0.40;;;14.10;99.90;;;;;;5063962;28;20033;-64
2022/12/31 04:39:49;;;;;;;0.85;0.50;;;14.10;99.90;;;;;;5068910;28;20025;-66
2022/12/31 04:42:14;;;;;;;1.30;0.40;;;14.10;99.90;;;;;;5063785;28;20057;-63
2022/12/31 04:44:40;;;;;;;2.25;0.50;;;14.10;99.90;;;;;;5059759;28;20032;-66
2022/12/31 04:47:05;;;;;;;2.67;0.60;;;14.10;99.90;;;;;;5069255;28;20035;-66
2022/12/31 04:49:31;;;;;;;0.90;0.40;;;14.20;99.90;;;;;;5069000;28;20081;-65
2022/12/31 04:51:57;;;;;;;2.05;0.40;;;14.20;99.90;;;;;;5066408;28;20043;-65
2022/12/31 04:54:22;;;;;;;0.73;0.35;;;14.20;99.90;;;;;;5067898;28;20494;-64
2022/12/31 04:56:48;;;;;;;0.70;0.28;;;14.30;99.90;;;;;;5068680;28;20111;-68
2022/12/31 04:59:13;;;;;;;0.88;0.50;;;14.20;99.90;;;;;;5067241;28;20108;-64
2022/12/31 05:01:39;;;;;;;0.60;0.40;;;14.20;99.90;;;;;;5067266;28;20035;-66
2022/12/31 05:04:05;;;;;;;1.98;0.40;;;14.20;99.90;;;;;;5061122;28;20082;-65
2022/12/31 05:06:31;;;;;;;1.88;0.30;;;14.10;99.90;;;;;;5067336;28;20105;-64
2022/12/31 05:08:56;;;;;;;0.60;0.30;;;14.20;99.90;;;;;;5069112;28;20028;-63
2022/12/31 05:11:22;;;;;;;1.38;0.30;;;14.30;99.90;;;;;;5078958;28;20028;-65
2022/12/31 05:13:47;;;;;;;1.25;0.32;;;14.40;99.90;;;;;;5071949;28;20043;-64
2022/12/31 05:16:13;;;;;;;0.80;0.50;;;14.40;99.90;;;;;;5064522;28;20043;-62
2022/12/31 05:18:39;;;;;;;1.10;0.32;;;14.30;99.90;;;;;;5064511;28;20028;-65
2022/12/31 05:21:05;;;;;;;1.15;0.20;;;14.40;99.90;;;;;;5066439;28;20029;-63
2022/12/31 05:23:31;;;;;;;1.05;0.32;;;14.50;99.90;;;;;;5058088;28;20025;-65
2022/12/31 05:25:58;;;;;;;0.45;0.28;;;14.60;99.90;;;;;;5046919;28;20044;-63
2022/12/31 05:28:24;;;;;;;0.73;0.32;;;14.60;99.90;;;;;;5049063;28;20044;-65
2022/12/31 05:30:50;;;;;;;0.70;0.30;;;14.70;99.90;;;;;;5046576;28;20487;-66
2022/12/31 05:33:17;;;;;;;0.50;0.40;;;14.70;99.90;;;;;;5066360;28;20063;-63
2022/12/31 05:35:43;;;;;;;0.35;0.20;;;14.80;99.90;;;;;;5067459;28;20048;-62
2022/12/31 05:38:09;;;;;;;2.58;0.43;;;14.80;99.90;;;;;;5052858;28;20028;-63
2022/12/31 05:40:34;;;;;;;0.93;0.30;;;14.80;99.90;;;;;;5056710;28;20777;-63
2022/12/31 05:43:00;;;;;;;1.02;0.40;;;14.70;99.90;;;;;;5067507;28;20036;-65
2022/12/31 05:45:26;;;;;;;0.68;0.30;;;14.90;99.90;;;;;;5051366;28;20056;-64
2022/12/31 05:47:51;;;;;;;0.68;0.30;;;14.80;99.90;;;;;;5064398;28;20404;-65
2022/12/31 05:50:17;;;;;;;1.40;0.30;;;14.80;99.90;;;;;;5057077;28;20029;-65
2022/12/31 05:52:44;;;;;;;2.10;0.20;;;14.80;99.90;;;;;;5059312;28;20540;-65
2022/12/31 05:55:10;;;;;;;0.50;0.28;;;14.90;99.90;;;;;;5059253;28;20025;-64
2022/12/31 05:57:37;;;;;;;0.38;0.20;;;14.90;99.90;;;;;;5048564;28;20025;-63
2022/12/31 06:00:05;;;;;;;5.63;0.40;;;14.90;99.90;;;;;;5053923;28;20040;-63
2022/12/31 06:02:30;;;;;;;0.40;0.30;;;14.90;99.90;;;;;;5048027;28;20033;-64
2022/12/31 06:04:56;;;;;;;0.77;0.47;;;14.70;99.90;;;;;;5051220;28;20040;-63
2022/12/31 06:07:22;;;;;;;2.08;0.47;;;14.80;99.90;;;;;;5080608;28;20025;-63
2022/12/31 06:09:48;;;;;;;0.85;0.43;;;14.80;99.90;;;;;;5048351;28;20029;-66
2022/12/31 06:12:14;;;;;;;1.15;0.43;;;14.80;99.90;;;;;;5050046;28;20504;-64
2022/12/31 06:14:39;;;;;;;0.50;0.40;;;14.70;99.90;;;;;;5063034;28;20028;-65
2022/12/31 06:17:05;;;;;;;4.80;0.65;;;14.70;99.90;;;;;;5067204;28;20032;-65
2022/12/31 06:19:31;;;;;;;1.20;0.40;;;14.70;99.90;;;;;;5076388;28;20028;-63
2022/12/31 06:21:56;;;;;;;2.28;0.60;;;14.80;99.90;;;;;;5062010;28;20041;-67
2022/12/31 06:24:23;;;;;;;3.05;0.40;;;14.70;99.90;;;;;;5052806;28;20114;-64
2022/12/31 06:26:48;;;;;;;1.88;0.40;;;14.80;99.90;;;;;;5067200;28;20074;-65
2022/12/31 06:29:14;;;;;;;0.60;0.40;;;14.70;99.90;;;;;;5056167;28;20057;-65
2022/12/31 06:31:40;;;;;;;0.77;0.40;;;14.70;99.90;;;;;;5048208;28;20033;-64
2022/12/31 06:34:06;;;;;;;1.10;0.63;;;14.70;99.90;;;;;;5064373;28;20036;-64
2022/12/31 06:36:31;;;;;;;2.60;0.50;;;14.70;99.90;;;;;;5066190;28;20031;-65
2022/12/31 06:38:57;;;;;;;1.30;0.70;;;14.60;99.90;;;;;;5074517;28;20040;-67
2022/12/31 06:41:23;;;;;;;3.17;0.60;;;14.60;99.90;;;;;;5064986;28;20064;-64
2022/12/31 06:43:48;;;;;;;2.58;0.50;;;14.70;99.90;;;;;;5062105;28;20029;-64
2022/12/31 06:46:16;;;;;;;0.70;0.40;;;14.70;99.90;;;;;;5063867;28;20035;-62
2022/12/31 06:48:43;;;;;;;0.95;0.52;;;14.70;99.90;;;;;;5076979;28;20036;-64
2022/12/31 06:51:14;;;;;;;2.55;0.50;;;14.60;99.90;;;;;;5090546;28;20035;-64
2022/12/31 06:53:40;;;;;;;0.55;0.40;;;14.60;99.90;;;;;;5068315;28;20033;-63
2022/12/31 06:56:31;;;;;;;1.60;0.70;;;14.50;99.90;;;;;;5072602;28;20078;-65
2022/12/31 06:58:57;;;;;;;2.53;0.60;;;14.50;99.90;;;;;;5062999;28;20119;-65
2022/12/31 07:01:44;;;;;;;1.13;0.40;;;14.50;99.90;;;;;;5067120;28;20040;-64
2022/12/31 07:04:24;;;;;;;1.38;0.45;;;14.50;99.90;;;;;;5068873;28;20040;-64
2022/12/31 07:06:52;;;;;;;2.33;0.40;;;14.60;99.90;;;;;;5066968;28;20131;-63
2022/12/31 07:09:32;;;;;;;0.80;0.50;;;14.60;99.90;;;;;;5069040;28;20033;-66
2022/12/31 07:12:09;;;;;;;0.70;0.40;;;14.60;99.90;;;;;;5056858;28;20041;-65
2022/12/31 07:14:45;;;;;;;1.38;0.50;;;14.60;99.90;;;;;;5066995;28;20056;-65
2022/12/31 07:17:13;;;;;;;2.20;0.40;;;14.60;99.90;;;;;;5069731;28;20036;-65
2022/12/31 07:20:11;;;;;;;1.00;0.47;;;14.70;99.90;;;;;;5086031;28;20032;-65
2022/12/31 07:22:37;;;;;;;2.38;0.40;;;14.70;99.90;;;;;;5063423;28;20029;-64
2022/12/31 07:25:05;;;;;;;3.72;0.50;;;14.70;99.90;;;;;;5065433;28;20468;-64
2022/12/31 07:27:57;;;;;;;1.92;0.38;;;14.70;99.90;;;;;;5061856;28;20061;-64
2022/12/31 07:30:44;;;;;;;0.93;0.38;;;14.70;99.90;;;;;;5053420;28;20033;-64
2022/12/31 07:33:50;;;;;;;0.45;0.30;;;14.80;99.90;;;;;;5049658;28;20025;-65
2022/12/31 07:36:44;;;;;;;1.20;0.60;;;14.90;99.90;;;;;;5067116;28;20829;-65
2022/12/31 07:39:15;;;;;;;2.85;0.60;;;14.90;99.90;;;;;;5030629;28;20529;-65
2022/12/31 07:42:02;;;;;;;0.63;0.50;;;14.80;99.90;;;;;;5050681;28;20056;-65
2022/12/31 07:45:02;;;;;;;2.97;0.50;;;14.90;99.90;;;;;;5058933;28;20474;-64
2022/12/31 07:47:29;;;;;;;2.00;0.47;;;14.80;99.90;;;;;;5051034;28;20541;-64
2022/12/31 07:49:55;;;;;;;1.50;0.40;;;14.80;99.90;;;;;;5063077;28;21129;-64
2022/12/31 07:52:22;;;;;;;1.25;0.38;;;14.80;99.90;;;;;;5058982;28;20035;-64
2022/12/31 07:54:48;;;;;;;0.88;0.35;;;14.80;99.90;;;;;;5057313;28;20041;-65
2022/12/31 07:57:16;;;;;;;0.75;0.45;;;14.80;99.90;;;;;;5064188;28;20369;-64
2022/12/31 08:00:05;;;;;;;1.90;0.38;;;14.90;99.90;;;;;;5066349;28;20073;-64
2022/12/31 08:02:49;;;;;;;2.35;0.45;;;14.90;99.90;;;;;;5063676;28;20017;-62
2022/12/31 08:05:31;;;;;;;8.43;0.47;;;14.90;99.90;;;;;;5056036;28;20029;-63
2022/12/31 08:08:35;;;;;;;1.55;0.30;;;14.90;99.90;;;;;;5051008;28;20367;-64
2022/12/31 08:11:03;;;;;;;1.23;0.43;;;14.90;99.90;;;;;;5052441;28;20497;-66
2022/12/31 08:13:29;;;;;;;0.85;0.45;;;14.80;99.90;;;;;;5050648;28;20041;-63
2022/12/31 08:15:55;;;;;;;2.20;0.50;;;14.80;99.90;;;;;;5052868;28;20036;-64
2022/12/31 08:18:21;;;;;;;0.80;0.32;;;14.80;99.90;;;;;;5056613;28;20028;-62
2022/12/31 08:21:25;;;;;;;1.40;0.50;;;14.70;99.90;;;;;;5080346;28;20115;-63
2022/12/31 08:24:02;;;;;;;2.78;0.50;;;14.70;99.90;;;;;;5034549;28;20465;-64
2022/12/31 08:26:31;;;;;;;0.70;0.22;;;14.80;99.90;;;;;;5062404;28;20041;-64
2022/12/31 08:28:59;;;;;;;0.43;0.30;;;14.90;99.90;;;;;;5049591;28;20064;-63
2022/12/31 08:32:00;;;;;;;0.80;0.40;;;14.90;99.90;;;;;;5063912;28;20043;-65
2022/12/31 08:34:26;;;;;;;;;;;14.90;99.90;;;;;;5052194;28;20123;-63
2022/12/31 08:36:59;;;;;;;0.82;0.40;;;15.00;99.90;;;;;;5052415;28;20605;-64
2022/12/31 08:39:35;;;;;;;0.45;0.40;;;15.00;99.90;;;;;;5048747;28;20111;-64
2022/12/31 08:42:08;;;;;;;2.40;0.40;;;15.00;99.90;;;;;;5049021;28;20150;-67
2022/12/31 08:45:13;;;;;;;3.20;0.40;;;15.00;99.90;;;;;;5067602;28;20381;-62
2022/12/31 08:47:55;;;;;;;4.20;0.75;;;15.10;99.90;;;;;;5044797;28;20037;-65
2022/12/31 08:50:21;;;;;;;0.95;0.52;;;15.10;99.90;;;;;;5068445;28;20090;-64
2022/12/31 08:52:47;;;;;;;0.93;0.40;;;15.20;99.90;;;;;;5069275;28;20074;-64
2022/12/31 08:55:16;;;;;;;0.82;0.52;;;15.20;99.90;;;;;;5068296;28;20123;-64
2022/12/31 08:58:04;;;;;;;1.33;0.60;;;15.20;99.90;;;;;;5069112;28;20111;-65
2022/12/31 09:00:31;;;;;;;2.35;0.38;;;15.40;99.90;;;;;;5058187;28;20037;-64
2022/12/31 09:03:02;;;;;;;1.33;0.60;;;15.60;99.90;;;;;;5048983;28;20095;-64
2022/12/31 09:05:52;;;;;;;0.88;0.40;;;15.70;99.90;;;;;;5048550;28;20033;-63
2022/12/31 09:08:41;;;;;;;1.17;0.43;;;15.70;99.90;;;;;;5061708;28;20098;-64
2022/12/31 09:11:29;;;;;;;1.25;0.55;;;15.60;99.90;;;;;;5047290;28;20522;-63
2022/12/31 09:14:14;;;;;;;1.10;0.57;;;15.60;99.90;;;;;;5049012;28;20112;-64
2022/12/31 09:17:01;;;;;;;1.90;0.40;;;15.60;99.90;;;;;;5051608;28;20858;-65
2022/12/31 09:19:26;;;;;;;1.20;0.65;;;15.60;99.90;;;;;;5068153;28;20036;-63
2022/12/31 09:21:52;;;;;;;3.25;0.65;;;15.60;99.90;;;;;;5059339;28;20028;-62
2022/12/31 09:24:18;;;;;;;2.83;0.70;;;15.60;99.90;;;;;;5059748;28;20051;-64
2022/12/31 09:27:05;;;;;;;3.20;0.60;;;15.70;99.90;;;;;;5054979;28;20094;-63
2022/12/31 09:29:46;;;;;;;1.75;0.60;;;15.70;99.90;;;;;;5060618;28;20099;-63
2022/12/31 09:32:39;;;;;;;;;;;15.70;99.90;;;;;;5067894;28;20615;-65
2022/12/31 09:35:10;;;;;;;0.93;0.50;;;15.70;99.90;;;;;;5067581;28;19930;-67
2022/12/31 09:37:41;;;;;;;1.63;0.50;;;15.70;99.90;;;;;;5068680;28;20039;-64
2022/12/31 09:40:51;;;;;;;3.13;0.50;;;15.70;99.90;;;;;;5049659;28;20458;-67
2022/12/31 09:43:48;;;;;;;0.93;0.60;;;15.70;99.90;;;;;;5047494;28;20028;-65
2022/12/31 09:46:42;;;;;;;1.35;0.50;;;15.70;99.90;;;;;;5047753;28;20037;-63
2022/12/31 09:49:26;;;;;;;0.85;0.50;;;15.70;99.90;;;;;;5047717;28;20484;-66
2022/12/31 09:52:25;;;;;;;1.13;0.50;;;15.80;99.90;;;;;;5049030;28;20086;-64
2022/12/31 09:55:18;;;;;;;1.27;0.50;;;16.00;99.90;;;;;;5048445;28;20065;-65
2022/12/31 09:58:20;;;;;;;3.05;0.60;;;16.20;99.90;;;;;;5048552;28;20485;-64
2022/12/31 10:01:14;;;;;;;1.73;0.50;;;16.40;99.90;;;;;;5048115;28;20405;-64
2022/12/31 10:04:03;;;;;;;2.15;0.43;;;16.50;99.90;;;;;;5048454;28;20060;-66
2022/12/31 10:06:56;;;;;;;1.13;0.52;;;16.60;99.90;;;;;;5056386;28;20108;-64
2022/12/31 10:09:31;;;;;;;2.45;0.50;;;16.60;99.90;;;;;;5066910;28;20051;-63
2022/12/31 10:12:18;;;;;;;1.30;0.40;;;16.40;99.90;;;;;;5048953;28;20021;-66
2022/12/31 10:14:54;;;;;;;1.52;0.60;;;16.40;99.90;;;;;;5048437;28;20085;-63
2022/12/31 10:17:45;;;;;;;1.40;0.40;;;16.40;99.90;;;;;;5047591;28;20025;-64
2022/12/31 10:20:37;;;;;;;2.15;0.57;;;16.40;99.90;;;;;;5047602;28;20049;-65
2022/12/31 10:23:08;;;;;;;3.78;0.60;;;16.40;99.90;;;;;;5052195;28;20029;-65
2022/12/31 10:26:03;;;;;;;1.15;0.50;;;16.40;99.90;;;;;;5061670;28;20024;-64
2022/12/31 10:29:02;;;;;;;0.75;0.52;;;16.40;99.90;;;;;;5071171;28;20044;-64
2022/12/31 10:31:34;;;;;;;2.70;0.50;;;16.40;99.90;;;;;;5068802;28;20695;-64
2022/12/31 10:34:31;;;;;;;1.30;0.40;;;16.60;99.90;;;;;;5051810;28;20426;-64
2022/12/31 10:37:05;;;;;;;1.35;0.50;;;16.80;99.90;;;;;;5053586;28;20043;-65
2022/12/31 10:40:07;;;;;;;0.88;0.50;;;17.10;99.90;;;;;;5054210;28;20029;-65
2022/12/31 10:42:54;;;;;;;0.98;0.50;;;17.20;99.90;;;;;;5067780;28;20037;-63
2022/12/31 10:45:38;;;;;;;0.93;0.40;;;17.20;99.90;;;;;;5054217;28;20032;-65
2022/12/31 10:48:24;;;;;;;0.90;0.57;;;17.30;99.90;;;;;;5061499;28;20037;-63
2022/12/31 10:51:31;;;;;;;1.33;0.50;;;17.30;99.90;;;;;;5051771;28;20037;-63
2022/12/31 10:54:32;;;;;;;1.15;0.47;;;17.40;99.90;;;;;;5051423;28;20145;-63
2022/12/31 10:57:05;;;;;;;0.80;0.40;;;17.40;99.90;;;;;;5017194;28;20041;-63
2022/12/31 11:00:09;;;;;;;0.70;0.50;;;17.40;99.90;;;;;;5060849;28;20477;-63
2022/12/31 11:02:50;;;;;;;1.23;0.60;;;17.40;99.90;;;;;;5071491;28;20028;-64
2022/12/31 11:05:34;;;;;;;1.98;0.57;;;17.50;99.90;;;;;;5071063;28;20527;-63
2022/12/31 11:08:21;;;;;;;1.90;0.70;;;17.50;99.90;;;;;;5070251;28;20162;-64
2022/12/31 11:11:13;;;;;;;1.27;0.50;;;17.60;99.90;;;;;;5071348;28;20127;-65
2022/12/31 11:13:57;;;;;;;1.25;0.45;;;17.70;99.90;;;;;;5071316;28;20024;-64
2022/12/31 11:16:41;;;;;;;1.25;0.40;;;17.70;99.90;;;;;;5069413;28;20085;-64
2022/12/31 11:19:09;;;;;;;1.45;0.60;;;17.70;99.90;;;;;;5063460;28;20060;-64
2022/12/31 11:21:44;;;;;;;2.45;0.60;;;17.70;99.90;;;;;;5054611;28;20033;-66
2022/12/31 11:24:28;;;;;;;2.65;0.60;;;17.80;99.90;;;;;;5064020;28;20043;-67
2022/12/31 11:27:40;;;;;;;1.40;0.57;;;17.80;99.90;;;;;;5061012;28;20477;-64
2022/12/31 11:30:18;;;;;;;1.02;0.60;;;17.90;99.90;;;;;;5038219;28;20424;-64
2022/12/31 11:33:07;;;;;;;1.05;0.43;;;17.90;99.90;;;;;;5076209;28;20047;-64
2022/12/31 11:36:03;;;;;;;1.85;0.65;;;17.90;99.90;;;;;;5070835;28;20112;-64
2022/12/31 11:38:50;;;;;;;2.90;0.63;;;17.90;99.90;;;;;;5070104;28;20056;-65
2022/12/31 11:41:41;;;;;;;1.98;0.38;;;17.80;99.90;;;;;;5068669;28;20032;-66
2022/12/31 11:44:15;;;;;;;;;;;17.80;99.90;;;;;;5066337;28;20169;-63
2022/12/31 11:47:22;;;;;;;1.73;0.70;;;17.80;99.90;;;;;;5072359;28;19912;-64
2022/12/31 11:50:14;;;;;;;1.20;0.55;;;17.70;99.90;;;;;;5058117;28;20047;-63
2022/12/31 11:53:09;;;;;;;2.40;1.17;;;17.80;99.90;;;;;;5074459;28;20028;-64
2022/12/31 11:55:53;;;;;;;2.80;0.77;;;17.90;99.90;;;;;;5081021;28;20833;-63
2022/12/31 11:58:19;;;;;;;1.75;0.45;;;18.00;99.90;;;;;;5081723;28;20123;-64
2022/12/31 12:00:58;;;;;;;0.70;0.40;;;18.10;99.90;;;;;;5090217;28;20482;-64
2022/12/31 12:03:23;;;;;;;1.17;0.50;;;18.10;99.90;;;;;;5074292;28;20059;-63
2022/12/31 12:05:49;;;;;;;0.98;0.40;;;18.20;99.90;;;;;;5069108;28;20530;-64
2022/12/31 12:08:16;;;;;;;0.63;0.47;;;18.30;99.90;;;;;;5086014;28;20480;-67
2022/12/31 12:10:46;;;;;;;2.67;0.50;;;18.30;99.90;;;;;;5088920;28;20169;-63
2022/12/31 12:13:13;;;;;;;1.00;0.43;;;18.30;99.90;;;;;;5090128;28;20072;-63
2022/12/31 12:15:43;;;;;;;0.98;0.60;;;18.30;99.90;;;;;;5089802;28;20028;-63
2022/12/31 12:18:21;;;;;;;0.95;0.40;;;18.40;99.90;;;;;;5070938;28;20124;-64
2022/12/31 12:20:47;;;;;;;3.28;0.70;;;18.40;99.90;;;;;;5059161;28;20101;-65
2022/12/31 12:23:16;;;;;;;1.58;0.40;;;18.40;99.90;;;;;;5071108;28;21158;-66
2022/12/31 12:25:43;;;;;;;0.70;0.40;;;18.30;99.90;;;;;;5062201;28;20056;-64
2022/12/31 12:28:23;;;;;;;1.65;0.57;;;18.30;99.90;;;;;;5064388;28;20567;-63
2022/12/31 12:31:03;;;;;;;0.73;0.50;;;18.30;99.90;;;;;;5068180;28;20071;-64
2022/12/31 12:33:40;;;;;;;1.10;0.50;;;18.40;99.90;;;;;;5065697;28;20032;-64
2022/12/31 12:36:08;;;;;;;2.47;0.47;;;18.50;99.90;;;;;;5053404;28;20033;-64
2022/12/31 12:38:35;;;;;;;1.48;0.73;;;18.50;99.90;;;;;;5054386;28;20111;-64
2022/12/31 12:41:03;;;;;;;1.83;0.47;;;18.50;99.90;;;;;;5059040;28;20029;-64
2022/12/31 12:43:34;;;;;;;1.00;0.50;;;18.30;99.90;;;;;;5065426;28;20029;-62
2022/12/31 12:46:17;;;;;;;1.67;0.50;;;18.30;99.90;;;;;;5048405;28;20036;-63
2022/12/31 12:48:46;;;;;;;3.38;0.60;;;18.30;99.90;;;;;;5058253;28;20040;-64
2022/12/31 12:51:32;;;;;;;1.45;0.43;;;18.30;99.90;;;;;;5065465;28;20029;-63
2022/12/31 12:54:10;;;;;;;1.67;0.88;;;18.30;99.90;;;;;;5047588;28;20486;-63
2022/12/31 12:57:00;;;;;;;1.20;0.52;;;18.20;99.90;;;;;;5066479;28;20495;-63
2022/12/31 13:00:00;;;;;;;1.65;0.68;;;18.10;99.90;;;;;;5066941;28;20032;-63
2022/12/31 13:03:03;;;;;;;1.70;0.60;;;18.00;99.90;;;;;;5048387;28;20758;-64
2022/12/31 13:05:47;;;;;;;1.50;0.68;;;18.00;99.90;;;;;;5073198;28;20545;-67
2022/12/31 13:08:32;;;;;;;1.90;0.60;;;18.00;99.90;;;;;;5059017;28;20052;-64
2022/12/31 13:11:32;;;;;;;1.55;0.70;;;17.90;99.90;;;;;;5060626;28;20114;-65
2022/12/31 13:14:00;;;;;;;1.65;0.60;;;17.80;99.90;;;;;;5056360;28;20112;-64
2022/12/31 13:16:48;;;;;;;2.33;0.90;;;17.80;99.90;;;;;;5066298;28;20043;-66
2022/12/31 13:19:28;;;;;;;1.83;0.85;;;17.80;99.90;;;;;;5051052;28;20410;-67
2022/12/31 13:21:53;;;;;;;1.73;0.85;;;17.90;99.90;;;;;;5065084;28;20039;-67
2022/12/31 13:24:25;;;;;;;2.33;1.10;;;17.90;99.90;;;;;;5065587;28;20033;-70
2022/12/31 13:26:55;;;;;;;1.30;0.80;;;17.90;99.90;;;;;;5067908;28;20086;-65
2022/12/31 13:29:26;;;;;;;2.83;0.70;;;18.00;99.90;;;;;;5050983;28;20087;-66
2022/12/31 13:31:55;;;;;;;3.40;0.73;;;17.90;99.90;;;;;;5067134;28;20086;-68
2022/12/31 13:34:30;;;;;;;1.92;0.65;;;17.80;99.90;;;;;;5070559;28;20028;-65
2022/12/31 13:37:01;;;;;;;0.88;0.40;;;17.80;99.90;;;;;;5065547;28;20070;-69